Time;durP1;ratioP1;P1;durP2;ratioP2;P2;SDS_P1;SDS_P2;PMS_P1;PMS_P2;Temp;Humidity;BMP_temperature;BMP_pressure;BME280_temperature;BME280_humidity;BME280_pressure;Samples;Min_cycle;Max_cycle;Signal;HPM_P1;HPM_P2
2022/07/17 00:00:21;;;;;;;292.63;139.27;;;;;;;;;;5019053;28;20166;-49
2022/07/17 00:02:50;;;;;;;318.33;148.60;;;;;;;;;;5018894;28;20569;-49
2022/07/17 00:05:16;;;;;;;325.80;152.27;;;;;;;;;;5017006;28;20221;-49
2022/07/17 00:07:42;;;;;;;319.97;149.77;;;;;;;;;;5018563;28;20236;-49
2022/07/17 00:10:08;;;;;;;309.10;146.07;;;;;;;;;;5018558;28;20217;-49
2022/07/17 00:12:35;;;;;;;298.43;141.63;;;;;;;;;;5018645;28;20184;-49
2022/07/17 00:15:01;;;;;;;306.30;145.93;;;;;;;;;;5018790;28;20184;-49
2022/07/17 00:17:27;;;;;;;308.23;146.63;;;;;;;;;;5018556;28;20232;-49
2022/07/17 00:19:53;;;;;;;318.60;150.40;;;;;;;;;;5018268;28;20562;-49
2022/07/17 00:22:20;;;;;;;317.57;148.07;;;;;;;;;;5018591;28;20224;-49
2022/07/17 00:24:46;;;;;;;292.27;139.17;;;;;;;;;;5018850;28;20252;-49
2022/07/17 00:27:12;;;;;;;313.87;147.50;;;;;;;;;;5018708;28;20193;-49
2022/07/17 00:29:38;;;;;;;332.37;155.53;;;;;;;;;;5017458;28;20232;-49
2022/07/17 00:32:04;;;;;;;313.73;148.03;;;;;;;;;;5018147;28;20224;-49
2022/07/17 00:34:30;;;;;;;318.87;147.90;;;;;;;;;;5017960;28;20224;-49
2022/07/17 00:36:56;;;;;;;312.33;145.87;;;;;;;;;;5018340;28;20224;-49
2022/07/17 00:39:22;;;;;;;300.30;142.30;;;;;;;;;;5017905;28;20165;-49
2022/07/17 00:41:48;;;;;;;305.07;144.07;;;;;;;;;;5019029;28;20200;-49
2022/07/17 00:44:14;;;;;;;308.57;144.40;;;;;;;;;;5017991;28;20220;-49
2022/07/17 00:46:40;;;;;;;315.20;147.70;;;;;;;;;;5017951;28;20239;-49
2022/07/17 00:49:07;;;;;;;310.10;146.13;;;;;;;;;;5017779;28;20213;-49
2022/07/17 00:51:33;;;;;;;326.50;153.13;;;;;;;;;;5017867;28;20180;-49
2022/07/17 00:53:59;;;;;;;314.47;147.47;;;;;;;;;;5018409;28;20176;-49
2022/07/17 00:56:27;;;;;;;313.10;147.27;;;;;;;;;;5018165;28;20224;-49
2022/07/17 00:58:53;;;;;;;307.00;144.37;;;;;;;;;;5017942;28;20538;-49
2022/07/17 01:01:19;;;;;;;292.50;140.30;;;;;;;;;;5018008;28;20279;-49
2022/07/17 01:03:45;;;;;;;324.13;151.73;;;;;;;;;;5017675;28;20221;-49
2022/07/17 01:06:11;;;;;;;307.80;145.33;;;;;;;;;;5018356;28;20181;-49
2022/07/17 01:08:37;;;;;;;304.93;143.57;;;;;;;;;;5017695;28;20243;-49
2022/07/17 01:11:03;;;;;;;302.50;142.73;;;;;;;;;;5017895;28;20217;-49
2022/07/17 01:13:30;;;;;;;297.93;142.30;;;;;;;;;;5018224;28;20221;-49
2022/07/17 01:15:56;;;;;;;313.87;149.83;;;;;;;;;;5017803;28;20220;-49
2022/07/17 01:18:23;;;;;;;321.13;151.20;;;;;;;;;;5017367;28;20180;-49
2022/07/17 01:20:49;;;;;;;302.97;144.03;;;;;;;;;;5018385;28;20180;-49
2022/07/17 01:23:16;;;;;;;298.53;141.57;;;;;;;;;;5017652;28;20282;-49
2022/07/17 01:25:42;;;;;;;302.53;143.37;;;;;;;;;;5017827;28;20275;-49
2022/07/17 01:28:08;;;;;;;316.10;151.30;;;;;;;;;;5017354;28;20600;-49
2022/07/17 01:30:34;;;;;;;303.77;145.43;;;;;;;;;;5017751;28;20505;-49
2022/07/17 01:33:00;;;;;;;287.30;138.73;;;;;;;;;;5018076;28;20568;-49
2022/07/17 01:35:26;;;;;;;295.67;142.47;;;;;;;;;;5016238;28;20229;-49
2022/07/17 01:37:52;;;;;;;310.43;148.43;;;;;;;;;;5017172;28;20585;-49
2022/07/17 01:40:18;;;;;;;295.93;141.20;;;;;;;;;;5019587;28;20224;-49
2022/07/17 01:42:49;;;;;;;299.33;142.63;;;;;;;;;;5021375;28;20213;-49
2022/07/17 01:45:16;;;;;;;296.57;143.40;;;;;;;;;;5020253;28;20553;-49
2022/07/17 01:47:42;;;;;;;318.10;153.37;;;;;;;;;;5020599;28;20696;-49
2022/07/17 01:50:09;;;;;;;264.67;133.57;;;;;;;;;;5021060;28;20228;-49
2022/07/17 01:52:37;;;;;;;278.97;138.37;;;;;;;;;;5021209;28;20220;-49
2022/07/17 01:55:03;;;;;;;282.60;138.37;;;;;;;;;;5021341;28;20208;-49
2022/07/17 01:57:29;;;;;;;284.77;141.40;;;;;;;;;;5020948;28;20197;-49
2022/07/17 01:59:55;;;;;;;282.97;139.73;;;;;;;;;;5021275;28;20656;-49
2022/07/17 02:02:21;;;;;;;283.83;139.90;;;;;;;;;;5020479;28;20225;-49
2022/07/17 02:04:47;;;;;;;287.93;141.53;;;;;;;;;;5020605;28;20287;-49
2022/07/17 02:07:13;;;;;;;274.30;136.27;;;;;;;;;;5020649;28;20220;-49
2022/07/17 02:09:39;;;;;;;271.10;136.40;;;;;;;;;;5020706;28;20553;-49
2022/07/17 02:12:06;;;;;;;267.33;134.23;;;;;;;;;;5021384;28;20169;-49
2022/07/17 02:14:32;;;;;;;271.93;135.63;;;;;;;;;;5020890;28;20229;-49
2022/07/17 02:16:58;;;;;;;282.67;139.73;;;;;;;;;;5020315;28;20231;-49
2022/07/17 02:19:24;;;;;;;259.10;132.23;;;;;;;;;;5020330;28;20221;-49
2022/07/17 02:21:50;;;;;;;276.83;138.17;;;;;;;;;;5020535;28;20213;-49
2022/07/17 02:24:16;;;;;;;268.20;135.67;;;;;;;;;;5020885;28;20176;-49
2022/07/17 02:26:42;;;;;;;274.97;139.90;;;;;;;;;;5020488;28;20228;-49
2022/07/17 02:29:08;;;;;;;267.57;137.57;;;;;;;;;;5020231;28;20235;-49
2022/07/17 02:31:34;;;;;;;265.97;135.73;;;;;;;;;;5020575;28;20229;-48
2022/07/17 02:34:00;;;;;;;224.23;120.93;;;;;;;;;;5020161;28;20295;-49
2022/07/17 02:36:26;;;;;;;248.77;129.97;;;;;;;;;;5020318;28;20193;-49
2022/07/17 02:38:52;;;;;;;240.30;126.27;;;;;;;;;;5020791;28;20162;-49
2022/07/17 02:41:18;;;;;;;252.77;131.73;;;;;;;;;;5020169;28;20561;-49
2022/07/17 02:43:44;;;;;;;239.10;126.13;;;;;;;;;;5018800;28;20221;-49
2022/07/17 02:46:10;;;;;;;238.27;124.53;;;;;;;;;;5020016;28;20557;-48
2022/07/17 02:48:36;;;;;;;233.43;127.13;;;;;;;;;;5020263;28;20223;-48
2022/07/17 02:51:02;;;;;;;222.93;121.00;;;;;;;;;;5019585;28;20172;-49
2022/07/17 02:53:27;;;;;;;249.53;130.13;;;;;;;;;;5019671;28;20221;-48
2022/07/17 02:55:53;;;;;;;260.27;133.80;;;;;;;;;;5019932;28;20220;-49
2022/07/17 02:58:19;;;;;;;239.13;124.63;;;;;;;;;;5019451;28;20241;-49
2022/07/17 03:00:45;;;;;;;240.30;126.23;;;;;;;;;;5018496;28;20217;-49
2022/07/17 03:03:11;;;;;;;237.67;124.83;;;;;;;;;;5019915;28;20166;-49
2022/07/17 03:05:37;;;;;;;208.60;117.40;;;;;;;;;;5019830;28;20419;-49
2022/07/17 03:08:03;;;;;;;253.93;133.27;;;;;;;;;;5019533;28;20229;-49
2022/07/17 03:10:29;;;;;;;236.83;127.40;;;;;;;;;;5019627;28;20223;-49
2022/07/17 03:12:55;;;;;;;236.00;124.23;;;;;;;;;;5019841;28;20208;-49
2022/07/17 03:15:21;;;;;;;246.27;127.17;;;;;;;;;;5018257;28;20184;-49
2022/07/17 03:17:47;;;;;;;263.80;133.23;;;;;;;;;;5019349;28;20191;-49
2022/07/17 03:20:13;;;;;;;252.37;129.17;;;;;;;;;;5019324;28;20221;-49
2022/07/17 03:22:40;;;;;;;240.93;124.73;;;;;;;;;;5019177;28;20279;-49
2022/07/17 03:25:06;;;;;;;243.27;127.10;;;;;;;;;;5019715;28;20645;-48
2022/07/17 03:27:32;;;;;;;234.17;123.17;;;;;;;;;;5019456;28;20626;-49
2022/07/17 03:29:58;;;;;;;253.40;129.63;;;;;;;;;;5019599;28;20166;-49
2022/07/17 03:32:24;;;;;;;208.03;115.20;;;;;;;;;;5019130;28;20279;-49
2022/07/17 03:34:49;;;;;;;235.57;125.53;;;;;;;;;;5018945;28;20306;-48
2022/07/17 03:37:16;;;;;;;234.07;124.77;;;;;;;;;;5019254;28;20225;-48
2022/07/17 03:39:42;;;;;;;243.40;126.83;;;;;;;;;;5018789;28;20220;-49
2022/07/17 03:42:08;;;;;;;226.70;121.67;;;;;;;;;;5019658;28;20180;-49
2022/07/17 03:44:34;;;;;;;223.73;120.40;;;;;;;;;;5019092;28;20227;-49
2022/07/17 03:47:00;;;;;;;232.37;123.13;;;;;;;;;;5019064;28;20229;-48
2022/07/17 03:49:26;;;;;;;222.20;119.57;;;;;;;;;;5018829;28;20220;-49
2022/07/17 03:51:52;;;;;;;236.83;124.03;;;;;;;;;;5018599;28;20213;-49
2022/07/17 03:54:18;;;;;;;203.93;115.00;;;;;;;;;;5019084;28;20165;-49
2022/07/17 03:56:44;;;;;;;219.93;119.77;;;;;;;;;;5017341;28;20231;-49
2022/07/17 03:59:10;;;;;;;210.20;118.13;;;;;;;;;;5018615;28;20216;-48
2022/07/17 04:01:36;;;;;;;228.73;121.63;;;;;;;;;;5018532;28;20217;-49
2022/07/17 04:04:02;;;;;;;220.37;118.13;;;;;;;;;;5018433;28;20239;-49
2022/07/17 04:06:27;;;;;;;217.33;117.73;;;;;;;;;;5018640;28;20526;-49
2022/07/17 04:08:53;;;;;;;197.50;113.93;;;;;;;;;;5019064;28;20219;-48
2022/07/17 04:11:20;;;;;;;243.03;126.90;;;;;;;;;;5018410;28;20256;-48
2022/07/17 04:13:46;;;;;;;224.80;122.33;;;;;;;;;;5018485;28;20661;-48
2022/07/17 04:16:12;;;;;;;203.20;114.40;;;;;;;;;;5017691;28;20557;-48
2022/07/17 04:18:38;;;;;;;221.97;122.03;;;;;;;;;;5018468;28;20190;-49
2022/07/17 04:21:06;;;;;;;220.63;118.93;;;;;;;;;;5017497;28;20196;-48
2022/07/17 04:23:32;;;;;;;240.80;126.20;;;;;;;;;;5015879;28;20232;-48
2022/07/17 04:25:58;;;;;;;227.77;120.13;;;;;;;;;;5017745;28;20220;-49
2022/07/17 04:28:24;;;;;;;210.90;115.80;;;;;;;;;;5018070;28;20228;-49
2022/07/17 04:30:50;;;;;;;202.77;115.33;;;;;;;;;;5018182;28;20224;-48
2022/07/17 04:33:17;;;;;;;214.40;117.77;;;;;;;;;;5018801;28;20204;-49
2022/07/17 04:35:43;;;;;;;249.40;131.60;;;;;;;;;;5017773;28;20541;-49
2022/07/17 04:38:09;;;;;;;229.03;121.00;;;;;;;;;;5017786;28;20307;-48
2022/07/17 04:40:36;;;;;;;219.03;118.47;;;;;;;;;;5018172;28;20225;-49
2022/07/17 04:43:02;;;;;;;213.13;116.40;;;;;;;;;;5018316;28;20287;-49
2022/07/17 04:45:28;;;;;;;223.43;121.87;;;;;;;;;;5018014;28;20169;-49
2022/07/17 04:47:55;;;;;;;238.43;125.47;;;;;;;;;;5017779;28;20189;-49
2022/07/17 04:50:21;;;;;;;225.97;122.37;;;;;;;;;;5017946;28;20573;-49
2022/07/17 04:52:47;;;;;;;235.37;125.87;;;;;;;;;;5017723;28;20221;-49
2022/07/17 04:55:13;;;;;;;234.00;125.70;;;;;;;;;;5016519;28;20216;-49
2022/07/17 04:57:39;;;;;;;216.10;118.00;;;;;;;;;;5017801;28;20588;-49
2022/07/17 05:00:06;;;;;;;223.27;120.63;;;;;;;;;;5018120;28;20176;-48
2022/07/17 05:02:32;;;;;;;222.67;120.17;;;;;;;;;;5018114;28;20228;-49
2022/07/17 05:04:58;;;;;;;234.13;124.33;;;;;;;;;;5017696;28;20221;-48
2022/07/17 05:07:24;;;;;;;238.63;127.67;;;;;;;;;;5017603;28;20229;-48
2022/07/17 05:09:50;;;;;;;245.53;127.77;;;;;;;;;;5016712;28;20216;-48
2022/07/17 05:12:16;;;;;;;255.70;131.07;;;;;;;;;;5015852;28;20170;-48
2022/07/17 05:14:42;;;;;;;238.30;126.20;;;;;;;;;;5016540;28;20208;-48
2022/07/17 05:17:08;;;;;;;244.50;127.07;;;;;;;;;;5019409;28;20236;-48
2022/07/17 05:19:35;;;;;;;218.47;119.70;;;;;;;;;;5021351;28;20224;-48
2022/07/17 05:22:01;;;;;;;229.47;122.20;;;;;;;;;;5021901;28;20596;-48
2022/07/17 05:24:27;;;;;;;233.70;124.53;;;;;;;;;;5021253;28;20177;-48
2022/07/17 05:26:53;;;;;;;234.17;124.87;;;;;;;;;;5021831;28;20185;-48
2022/07/17 05:29:19;;;;;;;237.57;126.10;;;;;;;;;;5021329;28;20699;-49
2022/07/17 05:31:45;;;;;;;202.60;115.53;;;;;;;;;;5021216;28;20735;-48
2022/07/17 05:34:11;;;;;;;231.23;123.60;;;;;;;;;;5021349;28;20216;-49
2022/07/17 05:36:37;;;;;;;230.00;123.33;;;;;;;;;;5021233;28;20189;-48
2022/07/17 05:39:03;;;;;;;234.47;125.77;;;;;;;;;;5021681;28;20177;-50
2022/07/17 05:41:29;;;;;;;242.63;130.47;;;;;;;;;;5021400;28;20220;-49
2022/07/17 05:43:54;;;;;;;226.17;124.40;;;;;;;;;;5021208;28;20221;-50
2022/07/17 05:46:20;;;;;;;235.03;130.00;;;;;;;;;;5021291;28;20216;-50
2022/07/17 05:48:46;;;;;;;240.90;129.67;;;;;;;;;;5020732;28;20220;-50
2022/07/17 05:51:12;;;;;;;259.80;140.27;;;;;;;;;;5021393;28;20169;-49
2022/07/17 05:53:38;;;;;;;264.03;137.23;;;;;;;;;;5020878;28;20224;-50
2022/07/17 05:56:04;;;;;;;231.50;129.80;;;;;;;;;;5020889;28;20658;-50
2022/07/17 05:58:30;;;;;;;226.17;124.23;;;;;;;;;;5020908;28;20224;-50
2022/07/17 06:00:56;;;;;;;285.63;150.87;;;;;;;;;;5019126;28;20317;-50
2022/07/17 06:03:22;;;;;;;289.33;149.97;;;;;;;;;;5018445;28;20169;-50
2022/07/17 06:05:48;;;;;;;272.17;139.87;;;;;;;;;;5019897;28;20170;-50
2022/07/17 06:08:14;;;;;;;252.03;133.37;;;;;;;;;;5020620;28;20593;-49
2022/07/17 06:10:40;;;;;;;234.80;131.67;;;;;;;;;;5020934;28;20223;-48
2022/07/17 06:13:06;;;;;;;262.67;141.33;;;;;;;;;;5020500;28;20212;-49
2022/07/17 06:15:32;;;;;;;277.50;147.00;;;;;;;;;;5020518;28;20173;-49
2022/07/17 06:18:04;;;;;;;262.40;136.87;;;;;;;;;;5020817;28;20189;-49
2022/07/17 06:20:30;;;;;;;261.57;142.07;;;;;;;;;;5020535;28;20231;-49
2022/07/17 06:22:57;;;;;;;266.10;145.20;;;;;;;;;;5020301;28;20228;-48
2022/07/17 06:25:23;;;;;;;272.53;143.97;;;;;;;;;;5020079;28;20225;-49
2022/07/17 06:27:49;;;;;;;277.93;143.43;;;;;;;;;;5019347;28;20229;-49
2022/07/17 06:30:15;;;;;;;256.50;137.03;;;;;;;;;;5020592;28;20633;-49
2022/07/17 06:32:42;;;;;;;272.07;144.27;;;;;;;;;;5020136;28;20557;-49
2022/07/17 06:35:08;;;;;;;261.47;139.50;;;;;;;;;;5020422;28;20228;-49
2022/07/17 06:37:34;;;;;;;239.73;136.07;;;;;;;;;;5020133;28;20685;-49
2022/07/17 06:40:00;;;;;;;272.83;146.83;;;;;;;;;;5020091;28;20220;-49
2022/07/17 06:42:26;;;;;;;268.00;150.43;;;;;;;;;;5020042;28;20558;-49
2022/07/17 06:44:52;;;;;;;268.60;147.57;;;;;;;;;;5020570;28;20169;-49
2022/07/17 06:47:18;;;;;;;276.40;150.03;;;;;;;;;;5019839;28;20239;-49
2022/07/17 06:49:44;;;;;;;273.53;146.50;;;;;;;;;;5019741;28;20225;-49
2022/07/17 06:52:10;;;;;;;273.47;149.60;;;;;;;;;;5019996;28;20228;-49
2022/07/17 06:54:36;;;;;;;277.73;152.67;;;;;;;;;;5020110;28;20177;-49
2022/07/17 06:57:02;;;;;;;279.70;149.77;;;;;;;;;;5020478;28;20184;-49
2022/07/17 06:59:28;;;;;;;352.33;183.32;;;;;;;;;;5018564;28;20399;-49
2022/07/17 07:01:54;;;;;;;323.27;164.97;;;;;;;;;;5019656;28;20711;-49
2022/07/17 07:04:20;;;;;;;320.07;167.97;;;;;;;;;;5019299;28;20220;-48
2022/07/17 07:06:46;;;;;;;327.73;172.00;;;;;;;;;;5016687;28;20279;-48
2022/07/17 07:09:12;;;;;;;323.03;174.00;;;;;;;;;;5017341;28;20181;-48
2022/07/17 07:11:38;;;;;;;294.77;156.00;;;;;;;;;;5019361;28;20235;-48
2022/07/17 07:14:05;;;;;;;299.37;161.83;;;;;;;;;;5019468;28;20225;-48
2022/07/17 07:16:31;;;;;;;303.70;155.93;;;;;;;;;;5019357;28;20265;-48
2022/07/17 07:18:57;;;;;;;290.77;151.23;;;;;;;;;;5019109;28;20247;-48
2022/07/17 07:21:24;;;;;;;280.50;149.00;;;;;;;;;;5019440;28;20165;-48
2022/07/17 07:23:50;;;;;;;304.70;154.73;;;;;;;;;;5019600;28;20191;-49
2022/07/17 07:26:16;;;;;;;306.80;158.90;;;;;;;;;;5019185;28;20229;-49
2022/07/17 07:28:42;;;;;;;305.30;155.68;;;;;;;;;;5019281;28;20236;-48
2022/07/17 07:31:09;;;;;;;301.50;162.90;;;;;;;;;;5019342;28;20213;-49
2022/07/17 07:33:35;;;;;;;301.07;152.30;;;;;;;;;;5019015;28;20204;-49
2022/07/17 07:36:01;;;;;;;306.52;155.70;;;;;;;;;;5015735;28;20173;-49
2022/07/17 07:38:27;;;;;;;324.40;174.68;;;;;;;;;;4998995;28;20232;-50
2022/07/17 07:40:53;;;;;;;334.53;168.70;;;;;;;;;;4999259;28;20236;-51
2022/07/17 07:43:19;;;;;;;344.03;178.53;;;;;;;;;;4998329;28;20225;-50
2022/07/17 07:45:45;;;;;;;320.65;174.25;;;;;;;;;;5002672;28;20220;-50
2022/07/17 07:48:11;;;;;;;315.30;168.25;;;;;;;;;;5017206;28;20569;-50
2022/07/17 07:50:37;;;;;;;313.73;168.35;;;;;;;;;;5017713;28;20221;-50
2022/07/17 07:53:03;;;;;;;346.03;179.00;;;;;;;;;;5017653;28;20279;-50
2022/07/17 07:55:29;;;;;;;335.17;173.97;;;;;;;;;;5017488;28;20517;-50
2022/07/17 07:58:01;;;;;;;329.70;168.17;;;;;;;;;;5016221;28;20229;-50
2022/07/17 08:00:27;;;;;;;339.83;172.23;;;;;;;;;;5016365;28;20184;-50
2022/07/17 08:02:53;;;;;;;331.20;172.57;;;;;;;;;;5017646;28;20173;-50
2022/07/17 08:05:19;;;;;;;343.23;179.57;;;;;;;;;;5011452;28;20245;-50
2022/07/17 08:07:45;;;;;;;328.57;173.03;;;;;;;;;;4997459;28;20229;-51
2022/07/17 08:10:11;;;;;;;310.25;165.27;;;;;;;;;;4998689;28;20303;-51
2022/07/17 08:12:37;;;;;;;331.00;176.47;;;;;;;;;;4998788;28;20490;-51
2022/07/17 08:15:03;;;;;;;341.70;179.77;;;;;;;;;;4998117;28;20177;-51
2022/07/17 08:17:29;;;;;;;345.57;181.80;;;;;;;;;;4995797;28;20764;-50
2022/07/17 08:19:55;;;;;;;343.77;186.88;;;;;;;;;;4995336;28;20226;-49
2022/07/17 08:22:21;;;;;;;337.50;184.60;;;;;;;;;;4976330;28;20331;-49
2022/07/17 08:24:47;;;;;;;332.88;182.40;;;;;;;;;;4978817;28;20222;-49
2022/07/17 08:27:13;;;;;;;315.98;172.52;;;;;;;;;;4979594;28;20500;-49
2022/07/17 08:29:39;;;;;;;314.53;170.67;;;;;;;;;;4979245;28;20253;-49
2022/07/17 08:32:05;;;;;;;341.67;173.88;;;;;;;;;;4978862;28;20237;-51
2022/07/17 08:34:31;;;;;;;320.77;168.35;;;;;;;;;;4978703;28;20226;-50
2022/07/17 08:36:57;;;;;;;325.85;175.02;;;;;;;;;;4978866;28;20210;-49
2022/07/17 08:39:23;;;;;;;317.02;172.98;;;;;;;;;;4991283;28;20179;-49
2022/07/17 08:41:49;;;;;;;325.15;170.05;;;;;;;;;;4978541;28;20183;-48
2022/07/17 08:44:15;;;;;;;328.90;175.93;;;;;;;;;;4978561;28;20284;-47
2022/07/17 08:46:41;;;;;;;335.30;179.85;;;;;;;;;;4978370;28;20226;-47
2022/07/17 08:49:08;;;;;;;333.65;172.93;;;;;;;;;;4975793;28;20229;-50
2022/07/17 08:51:35;;;;;;;392.23;199.45;;;;;;;;;;4970404;28;20192;-48
2022/07/17 08:54:01;;;;;;;408.08;205.32;;;;;;;;;;4978860;28;20185;-48
2022/07/17 08:56:27;;;;;;;420.77;207.63;;;;;;;;;;4985357;28;20882;-48
2022/07/17 08:58:55;;;;;;;392.43;202.90;;;;;;;;;;4973539;28;20226;-48
2022/07/17 09:01:21;;;;;;;371.35;188.52;;;;;;;;;;4977222;28;20233;-48
2022/07/17 09:03:56;;;;;;;382.40;198.63;;;;;;;;;;4970816;28;20233;-48
2022/07/17 09:06:22;;;;;;;348.65;180.88;;;;;;;;;;4977009;28;20202;-48
2022/07/17 09:08:48;;;;;;;332.20;175.20;;;;;;;;;;4977034;28;20182;-50
2022/07/17 09:11:14;;;;;;;414.75;216.52;;;;;;;;;;4977569;28;20232;-49
2022/07/17 09:13:45;;;;;;;417.30;214.85;;;;;;;;;;4963755;28;20221;-49
2022/07/17 09:16:12;;;;;;;436.52;223.95;;;;;;;;;;4960904;28;21938;-49
2022/07/17 09:18:49;;;;;;;422.35;220.63;;;;;;;;;;4969431;28;20499;-49
2022/07/17 09:21:19;;;;;;;308.05;165.27;;;;;;;;;;4975834;28;20508;-50
2022/07/17 09:23:45;;;;;;;325.52;169.75;;;;;;;;;;4983007;28;20225;-49
2022/07/17 09:26:11;;;;;;;312.38;160.85;;;;;;;;;;5017109;28;20290;-50
2022/07/17 09:28:47;;;;;;;335.57;173.27;;;;;;;;;;5008236;28;20239;-50
2022/07/17 09:31:14;;;;;;;325.95;164.73;;;;;;;;;;5007350;28;20593;-50
2022/07/17 09:33:41;;;;;;;329.88;170.25;;;;;;;;;;4989383;28;20229;-50
2022/07/17 09:36:08;;;;;;;375.03;192.37;;;;;;;;;;4992013;28;20181;-47
2022/07/17 09:38:36;;;;;;;349.83;186.53;;;;;;;;;;4979617;28;20218;-49
2022/07/17 09:41:29;;;;;;;330.20;172.48;;;;;;;;;;4988553;28;20540;-49
2022/07/17 09:43:53;;;;;;;334.75;174.02;;;;;;;;;;4980341;28;20223;-50
2022/07/17 09:46:19;;;;;;;323.75;171.65;;;;;;;;;;4978528;28;20528;-50
2022/07/17 09:48:49;;;;;;;328.58;171.15;;;;;;;;;;4988321;28;20217;-50
2022/07/17 09:51:19;;;;;;;329.27;170.25;;;;;;;;;;4998036;28;20173;-50
2022/07/17 09:53:49;;;;;;;314.65;170.20;;;;;;;;;;4997802;28;20205;-50
2022/07/17 09:56:17;;;;;;;331.33;186.55;;;;;;;;;;4997589;28;20222;-50
2022/07/17 09:58:46;;;;;;;322.00;178.05;;;;;;;;;;4997584;28;20542;-50
2022/07/17 10:01:13;;;;;;;333.17;189.10;;;;;;;;;;4999606;28;20740;-50
2022/07/17 10:03:39;;;;;;;348.52;186.68;;;;;;;;;;5002435;28;20181;-50
2022/07/17 10:06:05;;;;;;;316.40;177.38;;;;;;;;;;5005353;28;20568;-50
2022/07/17 10:08:31;;;;;;;324.65;182.43;;;;;;;;;;5000933;28;20590;-50
2022/07/17 10:10:57;;;;;;;330.45;186.38;;;;;;;;;;5001060;28;20243;-50
2022/07/17 10:13:24;;;;;;;337.45;190.85;;;;;;;;;;4998732;28;20683;-50
2022/07/17 10:15:51;;;;;;;342.48;189.70;;;;;;;;;;4982203;28;20249;-50
2022/07/17 10:18:17;;;;;;;346.08;202.85;;;;;;;;;;4981739;28;20240;-50
2022/07/17 10:20:43;;;;;;;319.33;180.90;;;;;;;;;;4981259;28;20866;-50
2022/07/17 10:23:13;;;;;;;333.80;179.83;;;;;;;;;;4997433;28;20221;-50
2022/07/17 10:25:39;;;;;;;350.77;193.15;;;;;;;;;;5000347;28;20280;-50
2022/07/17 10:28:05;;;;;;;354.93;187.00;;;;;;;;;;4998637;28;20232;-51
2022/07/17 10:30:33;;;;;;;356.67;200.55;;;;;;;;;;4999051;28;20181;-50
2022/07/17 10:33:01;;;;;;;356.33;203.68;;;;;;;;;;4999463;28;20172;-50
2022/07/17 10:35:27;;;;;;;321.30;184.20;;;;;;;;;;5000295;28;20546;-50
2022/07/17 10:37:53;;;;;;;355.50;195.90;;;;;;;;;;5000120;28;20570;-50
2022/07/17 10:40:20;;;;;;;333.67;190.93;;;;;;;;;;5000657;28;20224;-50
2022/07/17 10:42:56;;;;;;;337.10;190.23;;;;;;;;;;5000676;28;20267;-51
2022/07/17 10:45:27;;;;;;;340.83;196.77;;;;;;;;;;5000562;28;20173;-51
2022/07/17 10:47:58;;;;;;;343.77;196.50;;;;;;;;;;5000559;28;20186;-50
2022/07/17 10:50:26;;;;;;;340.50;192.07;;;;;;;;;;4999005;28;20221;-51
2022/07/17 10:53:06;;;;;;;354.05;198.38;;;;;;;;;;5000199;28;20222;-50
2022/07/17 10:55:33;;;;;;;333.77;189.37;;;;;;;;;;5010024;28;20224;-49
2022/07/17 10:57:59;;;;;;;332.58;182.15;;;;;;;;;;5019842;28;20228;-49
2022/07/17 11:00:25;;;;;;;342.50;189.38;;;;;;;;;;5019717;28;20169;-50
2022/07/17 11:02:52;;;;;;;348.25;191.63;;;;;;;;;;5019868;28;20165;-50
2022/07/17 11:05:19;;;;;;;352.10;204.80;;;;;;;;;;5001947;28;20284;-50
2022/07/17 11:07:58;;;;;;;339.85;193.13;;;;;;;;;;4999758;28;20232;-50
2022/07/17 11:10:27;;;;;;;328.07;183.60;;;;;;;;;;5000001;28;20228;-50
2022/07/17 11:12:54;;;;;;;346.15;190.43;;;;;;;;;;4999282;28;20213;-50
2022/07/17 11:15:20;;;;;;;344.05;192.55;;;;;;;;;;4993454;28;20604;-50
2022/07/17 11:17:47;;;;;;;350.40;199.33;;;;;;;;;;4980421;28;20245;-50
2022/07/17 11:20:13;;;;;;;332.80;184.47;;;;;;;;;;4996680;28;20586;-50
2022/07/17 11:22:40;;;;;;;340.47;195.47;;;;;;;;;;4999622;28;20229;-50
2022/07/17 11:25:07;;;;;;;351.10;201.60;;;;;;;;;;4993314;28;20218;-51
2022/07/17 11:27:33;;;;;;;357.80;200.93;;;;;;;;;;4964161;28;20211;-51
2022/07/17 11:30:00;;;;;;;362.13;215.05;;;;;;;;;;4993619;28;20189;-51
2022/07/17 11:32:37;;;;;;;351.23;204.20;;;;;;;;;;4998095;28;20225;-51
2022/07/17 11:35:03;;;;;;;336.52;194.85;;;;;;;;;;5011358;28;20225;-51
2022/07/17 11:37:30;;;;;;;362.60;203.38;;;;;;;;;;5002383;28;20760;-51
2022/07/17 11:39:57;;;;;;;336.17;190.02;;;;;;;;;;4997744;28;20217;-51
2022/07/17 11:42:23;;;;;;;359.20;212.73;;;;;;;;;;4997921;28;20173;-51
2022/07/17 11:44:53;;;;;;;356.17;212.80;;;;;;;;;;4997706;28;20174;-51
2022/07/17 11:47:20;;;;;;;355.23;213.43;;;;;;;;;;4997431;28;20590;-51
2022/07/17 11:49:46;;;;;;;352.70;207.43;;;;;;;;;;4997194;28;20213;-51
2022/07/17 11:52:14;;;;;;;350.08;213.18;;;;;;;;;;5004429;28;20228;-51
2022/07/17 11:54:56;;;;;;;350.67;211.65;;;;;;;;;;5015405;28;20661;-51
2022/07/17 11:57:23;;;;;;;362.33;199.27;;;;;;;;;;5016776;28;20189;-51
2022/07/17 11:59:51;;;;;;;341.45;193.00;;;;;;;;;;5017002;28;20173;-51
2022/07/17 12:02:20;;;;;;;338.67;197.13;;;;;;;;;;5017204;28;20225;-51
2022/07/17 12:04:50;;;;;;;361.35;209.02;;;;;;;;;;5016484;28;20220;-51
2022/07/17 12:07:16;;;;;;;349.50;206.35;;;;;;;;;;5016652;28;20228;-51
2022/07/17 12:09:42;;;;;;;345.98;210.68;;;;;;;;;;5002783;28;20221;-51
2022/07/17 12:12:18;;;;;;;356.17;220.82;;;;;;;;;;4997402;28;20177;-51
2022/07/17 12:14:54;;;;;;;346.27;216.13;;;;;;;;;;4997165;28;20228;-51
2022/07/17 12:17:20;;;;;;;346.00;220.07;;;;;;;;;;4996575;28;20228;-51
2022/07/17 12:19:46;;;;;;;339.40;218.50;;;;;;;;;;4996799;28;20218;-51
2022/07/17 12:22:12;;;;;;;342.85;211.30;;;;;;;;;;4997160;28;20213;-51
2022/07/17 12:24:39;;;;;;;337.58;207.10;;;;;;;;;;4997407;28;20627;-52
2022/07/17 12:27:07;;;;;;;349.77;225.82;;;;;;;;;;5017234;28;20630;-51
2022/07/17 12:29:33;;;;;;;375.42;223.88;;;;;;;;;;5015357;28;20296;-51
2022/07/17 12:32:06;;;;;;;364.70;223.20;;;;;;;;;;4998150;28;20480;-51
2022/07/17 12:34:32;;;;;;;351.88;216.65;;;;;;;;;;4994513;28;20221;-51
2022/07/17 12:36:58;;;;;;;375.15;225.82;;;;;;;;;;4994381;28;20276;-51
2022/07/17 12:39:24;;;;;;;361.95;224.18;;;;;;;;;;4994450;28;20181;-51
2022/07/17 12:41:50;;;;;;;379.45;238.48;;;;;;;;;;4995069;28;20594;-51
2022/07/17 12:44:16;;;;;;;346.98;222.80;;;;;;;;;;4995182;28;20213;-51
2022/07/17 12:46:42;;;;;;;346.02;224.63;;;;;;;;;;4995469;28;20232;-51
2022/07/17 12:49:08;;;;;;;354.95;221.45;;;;;;;;;;4996549;28;20685;-51
2022/07/17 12:51:34;;;;;;;364.65;243.68;;;;;;;;;;4997062;28;20181;-51
2022/07/17 12:54:00;;;;;;;368.52;241.75;;;;;;;;;;4995941;28;20230;-51
2022/07/17 12:56:27;;;;;;;358.52;238.98;;;;;;;;;;4996321;28;20693;-51
2022/07/17 12:58:53;;;;;;;338.83;232.52;;;;;;;;;;4996432;28;20218;-51
2022/07/17 13:01:19;;;;;;;349.20;234.40;;;;;;;;;;4996172;28;20271;-51
2022/07/17 13:03:46;;;;;;;344.10;230.00;;;;;;;;;;4996006;28;20221;-51
2022/07/17 13:06:12;;;;;;;370.40;237.15;;;;;;;;;;4996324;28;20234;-51
2022/07/17 13:08:38;;;;;;;378.13;244.07;;;;;;;;;;4994899;28;20225;-51
2022/07/17 13:11:04;;;;;;;382.75;249.27;;;;;;;;;;4994272;28;20208;-51
2022/07/17 13:13:30;;;;;;;353.58;228.18;;;;;;;;;;4994998;28;20408;-51
2022/07/17 13:15:57;;;;;;;359.52;228.98;;;;;;;;;;4996267;28;20218;-51
2022/07/17 13:18:23;;;;;;;359.02;233.23;;;;;;;;;;4996402;28;20501;-51
2022/07/17 13:20:49;;;;;;;362.40;237.15;;;;;;;;;;4996233;28;20197;-51
2022/07/17 13:23:15;;;;;;;354.60;240.95;;;;;;;;;;4996019;28;20229;-51
2022/07/17 13:25:43;;;;;;;356.58;240.38;;;;;;;;;;4996036;28;20264;-51
2022/07/17 13:28:09;;;;;;;366.40;240.20;;;;;;;;;;4995942;28;20252;-51
2022/07/17 13:30:35;;;;;;;383.38;262.42;;;;;;;;;;4996448;28;20186;-51
2022/07/17 13:33:01;;;;;;;370.92;255.80;;;;;;;;;;4995909;28;20218;-51
2022/07/17 13:35:27;;;;;;;355.95;249.43;;;;;;;;;;4997332;28;20214;-51
2022/07/17 13:37:53;;;;;;;383.67;263.73;;;;;;;;;;4997693;28;20240;-51
2022/07/17 13:40:19;;;;;;;363.27;256.35;;;;;;;;;;4998583;28;20511;-51
2022/07/17 13:42:45;;;;;;;365.05;257.33;;;;;;;;;;4999976;28;20217;-51
2022/07/17 13:45:11;;;;;;;367.23;254.93;;;;;;;;;;4998958;28;20193;-51
2022/07/17 13:47:38;;;;;;;361.27;239.73;;;;;;;;;;4999719;28;20593;-51